Ramsau, Austria
Current Conditions -  °F | °C
As of 2:20 PM on Thursday 29 Jan 2015 (Local Time) from LOWS Reporting Station
Broken Clouds Broken Clouds  
Wind Chill: 28°   Ceiling: 10000
Heat Index: 36°   Visibility: 6mi
Dew Point: 27°   Wind: 10mph
Humidity: 70%   Direction: 150°SSE
Pressure: 29.41"   Gusts: NA
Location:  47.42°N, 13.63°E
Report Text: LOWS 291220Z 15009KT 9999 FEW060 BKN100 02/M03 Q0996 R15/1///95 NOSIG
Loading
Personal Weather Stations






























Interactive Weather Map New forecast layout! Learn more

10-Day Weather Forecast

Advertisements
Track Severe Weather on mobile